createdAt,value
2022-08-25T00:01:33.273Z,3.60
2022-08-25T00:04:01.909Z,6.03
2022-08-25T00:06:29.559Z,4.20
2022-08-25T00:08:59.753Z,4.07
2022-08-25T00:11:29.621Z,5.47
2022-08-25T00:13:58.385Z,5.85
2022-08-25T00:16:26.276Z,4.05
2022-08-25T00:18:56.696Z,4.70
2022-08-25T00:21:24.743Z,3.63
2022-08-25T00:23:52.411Z,6.35
2022-08-25T00:26:20.324Z,3.50
2022-08-25T00:28:47.940Z,4.53
2022-08-25T00:31:16.829Z,7.40
2022-08-25T00:33:44.609Z,3.88
2022-08-25T00:36:14.055Z,5.63
2022-08-25T00:38:42.137Z,3.80
2022-08-25T00:41:11.397Z,6.30
2022-08-25T00:43:46.669Z,4.25
2022-08-25T00:46:15.052Z,4.32
2022-08-25T00:48:43.482Z,4.60
2022-08-25T00:51:13.156Z,4.85
2022-08-25T00:53:42.278Z,4.38
2022-08-25T00:56:10.022Z,5.35
2022-08-25T00:58:38.066Z,5.38
2022-08-25T01:01:05.795Z,4.72
2022-08-25T01:03:35.790Z,4.60
2022-08-25T01:06:04.746Z,6.57
2022-08-25T01:08:32.474Z,4.40
2022-08-25T01:11:02.704Z,7.90
2022-08-25T01:13:32.738Z,5.88
2022-08-25T01:16:00.677Z,6.20
2022-08-25T01:18:29.210Z,5.68
2022-08-25T01:20:58.770Z,5.00
2022-08-25T01:23:27.065Z,6.50
2022-08-25T01:25:59.575Z,5.15
2022-08-25T01:28:27.214Z,4.60
2022-08-25T01:30:54.928Z,5.47
2022-08-25T01:33:23.814Z,4.47
2022-08-25T01:35:51.490Z,4.38
2022-08-25T01:38:21.210Z,5.53
2022-08-25T01:40:50.775Z,8.57
2022-08-25T01:43:23.333Z,5.78
2022-08-25T01:45:51.217Z,5.47
2022-08-25T01:48:19.754Z,6.03
2022-08-25T01:50:47.395Z,5.38
2022-08-25T01:53:19.436Z,4.68
2022-08-25T01:56:02.613Z,5.50
2022-08-25T01:58:31.415Z,5.43
2022-08-25T02:00:59.988Z,5.35
2022-08-25T02:03:27.714Z,5.30
2022-08-25T02:05:55.810Z,4.85
2022-08-25T02:08:24.061Z,8.40
2022-08-25T02:10:53.772Z,6.35
2022-08-25T02:13:21.651Z,7.95
2022-08-25T02:15:56.403Z,5.15
2022-08-25T02:18:24.060Z,6.20
2022-08-25T02:20:51.896Z,4.72
2022-08-25T02:23:19.558Z,4.38
2022-08-25T02:25:47.444Z,7.07
2022-08-25T02:28:16.553Z,6.47
2022-08-25T02:30:44.312Z,5.45
2022-08-25T02:33:12.061Z,5.65
2022-08-25T02:35:40.003Z,5.85
2022-08-25T02:38:07.733Z,6.15
2022-08-25T02:40:35.922Z,5.78
2022-08-25T02:43:03.812Z,6.43
2022-08-25T02:45:32.848Z,7.10
2022-08-25T02:48:00.589Z,4.93
2022-08-25T02:50:28.353Z,8.13
2022-08-25T02:52:56.143Z,5.85
2022-08-25T02:55:23.863Z,4.75
2022-08-25T02:57:51.601Z,4.65
2022-08-25T03:00:19.351Z,6.38
2022-08-25T03:02:48.398Z,5.65
2022-08-25T03:05:16.347Z,5.95
2022-08-25T03:07:44.144Z,8.13
2022-08-25T03:10:13.849Z,7.65
2022-08-25T03:12:42.028Z,7.60
2022-08-25T03:15:12.880Z,6.78
2022-08-25T03:17:41.142Z,5.30
2022-08-25T03:20:15.395Z,6.85
2022-08-25T03:22:43.312Z,5.03
2022-08-25T03:25:28.728Z,6.60
2022-08-25T03:27:56.466Z,6.18
2022-08-25T03:30:24.135Z,10.95
2022-08-25T03:32:51.822Z,7.78
2022-08-25T03:35:21.165Z,8.23
2022-08-25T03:37:48.826Z,5.30
2022-08-25T03:40:17.469Z,6.75
2022-08-25T03:42:45.844Z,5.28
2022-08-25T03:45:14.485Z,8.20
2022-08-25T03:47:42.324Z,7.18
2022-08-25T03:50:11.300Z,7.18
2022-08-25T03:52:42.608Z,6.45
2022-08-25T03:55:11.878Z,5.70
2022-08-25T03:57:39.612Z,5.82
2022-08-25T04:00:08.410Z,5.65
2022-08-25T04:02:39.763Z,5.22
2022-08-25T04:05:07.692Z,4.13
2022-08-25T04:07:36.674Z,9.98
2022-08-25T04:10:06.281Z,5.50
2022-08-25T04:12:34.175Z,5.78
2022-08-25T04:15:02.233Z,5.63
2022-08-25T04:17:30.013Z,3.92
2022-08-25T04:19:58.102Z,5.57
2022-08-25T04:22:25.803Z,7.05
2022-08-25T04:24:56.525Z,6.13
2022-08-25T04:27:25.653Z,3.80
2022-08-25T04:29:53.305Z,5.97
2022-08-25T04:32:20.988Z,6.47
2022-08-25T04:34:49.206Z,4.93
2022-08-25T04:37:16.909Z,6.93
2022-08-25T04:39:44.755Z,9.63
2022-08-25T04:42:12.461Z,9.27
2022-08-25T04:44:41.818Z,6.47
2022-08-25T04:47:09.756Z,7.38
2022-08-25T04:49:38.180Z,10.98
2022-08-25T04:52:05.860Z,8.88
2022-08-25T04:54:40.792Z,5.53
2022-08-25T04:57:08.417Z,6.75
2022-08-25T04:59:36.060Z,4.22
2022-08-25T05:02:06.532Z,8.98
2022-08-25T05:04:35.713Z,12.43
2022-08-25T05:07:03.943Z,9.18
2022-08-25T05:09:32.351Z,8.15
2022-08-25T05:12:00.762Z,7.93
2022-08-25T05:14:28.489Z,7.47
2022-08-25T05:16:57.960Z,4.63
2022-08-25T05:19:27.093Z,7.28
2022-08-25T05:21:54.952Z,5.03
2022-08-25T05:24:25.991Z,7.82
2022-08-25T05:26:53.619Z,6.50
2022-08-25T05:29:21.426Z,8.00
2022-08-25T05:31:50.861Z,5.15
2022-08-25T05:34:19.456Z,8.98
2022-08-25T05:36:48.502Z,8.45
2022-08-25T05:39:16.175Z,7.28
2022-08-25T05:41:43.845Z,7.82
2022-08-25T05:44:12.660Z,6.78
2022-08-25T05:46:40.233Z,12.60
2022-08-25T05:49:07.835Z,13.93
2022-08-25T05:51:35.450Z,12.18
2022-08-25T05:54:04.750Z,8.68
2022-08-25T05:56:32.351Z,12.90
2022-08-25T05:59:00.006Z,14.43
2022-08-25T06:01:46.340Z,9.68
2022-08-25T06:04:14.893Z,7.97
2022-08-25T06:06:42.560Z,17.20
2022-08-25T06:09:11.792Z,13.90
2022-08-25T06:11:40.367Z,6.20
2022-08-25T06:14:08.247Z,9.07
2022-08-25T06:16:36.256Z,7.47
2022-08-25T06:19:03.957Z,6.70
2022-08-25T06:21:32.010Z,3.90
2022-08-25T06:23:59.644Z,4.85
2022-08-25T06:26:28.682Z,5.68
2022-08-25T06:28:56.311Z,11.40
2022-08-25T06:31:24.651Z,7.63
2022-08-25T06:33:52.892Z,7.45
2022-08-25T06:36:21.085Z,7.50
2022-08-25T06:38:48.944Z,5.75
2022-08-25T06:41:16.699Z,5.95
2022-08-25T06:43:49.859Z,5.10
2022-08-25T06:46:21.408Z,6.80
2022-08-25T06:48:49.460Z,6.30
2022-08-25T06:51:18.193Z,5.70
2022-08-25T06:53:47.642Z,4.95
2022-08-25T06:56:15.913Z,6.88
2022-08-25T06:58:45.037Z,8.13
2022-08-25T07:01:19.614Z,9.27
2022-08-25T07:03:48.475Z,2.92
2022-08-25T07:06:18.521Z,1.48
2022-08-25T07:08:46.790Z,1.50
2022-08-25T07:11:16.176Z,0.57
2022-08-25T07:13:46.628Z,1.33
2022-08-25T07:16:15.260Z,5.97
2022-08-25T07:18:44.171Z,1.85
2022-08-25T07:21:12.224Z,5.32
2022-08-25T07:23:40.056Z,2.92
2022-08-25T07:26:33.644Z,3.58
2022-08-25T07:29:00.314Z,8.48
2022-08-25T07:31:29.741Z,6.35
2022-08-25T07:34:15.324Z,12.43
2022-08-25T07:36:44.125Z,9.02
2022-08-25T07:39:11.789Z,5.32
2022-08-25T07:41:40.328Z,4.25
2022-08-25T07:44:10.553Z,6.82
2022-08-25T07:46:38.335Z,9.25
2022-08-25T07:49:16.937Z,6.07
2022-08-25T07:52:05.371Z,7.82
2022-08-25T07:54:34.273Z,7.25
2022-08-25T07:57:03.070Z,8.25
2022-08-25T07:59:39.410Z,5.97
2022-08-25T08:02:08.179Z,4.13
2022-08-25T08:04:37.004Z,2.80
2022-08-25T08:07:04.757Z,5.05
2022-08-25T08:09:39.705Z,4.65
2022-08-25T08:12:08.144Z,3.63
2022-08-25T08:14:37.409Z,4.30
2022-08-25T08:17:12.955Z,1.35
2022-08-25T08:19:44.430Z,2.33
2022-08-25T08:22:15.505Z,2.30
2022-08-25T08:24:53.922Z,0.95
2022-08-25T08:27:22.781Z,0.68
2022-08-25T08:29:52.240Z,1.73
2022-08-25T08:32:20.074Z,5.15
2022-08-25T08:34:53.370Z,1.00
2022-08-25T08:37:23.002Z,1.25
2022-08-25T08:39:52.558Z,1.58
2022-08-25T08:42:34.750Z,1.80
2022-08-25T08:45:09.723Z,0.75
2022-08-25T08:48:01.117Z,0.52
2022-08-25T08:50:33.771Z,2.70
2022-08-25T08:53:05.812Z,3.28
2022-08-25T08:55:37.996Z,5.00
2022-08-25T08:58:07.172Z,3.05
2022-08-25T09:00:40.445Z,3.75
2022-08-25T09:03:08.973Z,5.43
2022-08-25T09:05:44.901Z,9.57
2022-08-25T09:08:14.779Z,3.13
2022-08-25T09:10:56.939Z,8.40
2022-08-25T09:13:29.565Z,5.97
2022-08-25T09:16:23.334Z,3.45
2022-08-25T09:19:06.994Z,6.78
2022-08-25T09:21:37.144Z,4.78
2022-08-25T09:24:11.754Z,3.97
2022-08-25T09:26:42.012Z,4.90
2022-08-25T09:29:16.545Z,5.38
2022-08-25T09:31:46.211Z,6.60
2022-08-25T09:34:18.285Z,2.63
2022-08-25T09:36:48.502Z,3.08
2022-08-25T09:39:16.461Z,10.30
2022-08-25T09:41:46.015Z,5.95
2022-08-25T09:44:21.867Z,5.57
2022-08-25T09:47:01.809Z,2.40
2022-08-25T09:49:37.591Z,2.38
2022-08-25T09:52:19.968Z,5.50
2022-08-25T09:54:50.164Z,3.80
2022-08-25T09:57:32.192Z,5.70
2022-08-25T10:00:10.766Z,5.78
2022-08-25T10:02:39.865Z,4.93
2022-08-25T10:05:18.820Z,4.22
2022-08-25T10:07:53.001Z,3.33
2022-08-25T10:10:24.557Z,5.10
2022-08-25T10:12:52.369Z,7.47
2022-08-25T10:15:29.878Z,4.00
2022-08-25T10:18:17.994Z,5.72
2022-08-25T10:20:48.834Z,4.57
2022-08-25T10:23:16.581Z,5.47
2022-08-25T10:26:00.429Z,2.42
2022-08-25T10:28:34.350Z,3.40
2022-08-25T10:31:09.718Z,6.72
2022-08-25T10:33:46.215Z,4.75
2022-08-25T10:36:21.240Z,4.05
2022-08-25T10:38:52.905Z,2.83
2022-08-25T10:41:35.397Z,2.40
2022-08-25T10:44:31.785Z,6.22
2022-08-25T10:47:05.445Z,3.28
2022-08-25T10:49:37.516Z,2.58
2022-08-25T10:52:08.373Z,5.45
2022-08-25T10:54:42.313Z,3.25
2022-08-25T10:57:17.295Z,7.53
2022-08-25T10:59:49.986Z,5.32
2022-08-25T11:02:33.504Z,4.05
2022-08-25T11:05:04.057Z,3.40
2022-08-25T11:07:34.655Z,3.33
2022-08-25T11:10:07.435Z,2.63
2022-08-25T11:12:36.860Z,3.03
2022-08-25T11:15:08.497Z,2.25
2022-08-25T11:17:40.817Z,2.83
2022-08-25T11:20:19.891Z,3.67
2022-08-25T11:22:59.063Z,3.47
2022-08-25T11:25:29.578Z,2.60
2022-08-25T11:28:00.155Z,4.18
2022-08-25T11:30:28.903Z,3.05
2022-08-25T11:32:57.033Z,4.75
2022-08-25T11:35:30.406Z,3.90
2022-08-25T11:38:13.796Z,1.98
2022-08-25T11:40:52.606Z,3.55
2022-08-25T11:43:28.842Z,3.30
2022-08-25T11:46:08.642Z,5.65
2022-08-25T11:48:41.337Z,5.18
2022-08-25T11:51:12.336Z,3.88
2022-08-25T11:53:42.134Z,3.85
2022-08-25T11:56:12.503Z,3.55
2022-08-25T11:58:42.203Z,2.13
2022-08-25T12:01:11.057Z,2.38
2022-08-25T12:03:52.246Z,8.38
2022-08-25T12:06:29.488Z,1.92
2022-08-25T12:09:16.060Z,5.22
2022-08-25T12:11:46.028Z,5.05
2022-08-25T12:14:18.428Z,3.13
2022-08-25T12:17:01.345Z,2.17
2022-08-25T12:19:30.875Z,2.35
2022-08-25T12:22:18.861Z,2.88
2022-08-25T12:24:50.621Z,2.15
2022-08-25T12:27:23.172Z,3.85
2022-08-25T12:29:52.625Z,3.42
2022-08-25T12:32:29.185Z,1.50
2022-08-25T12:35:18.398Z,2.38
2022-08-25T12:37:58.137Z,2.65
2022-08-25T12:40:27.311Z,2.47
2022-08-25T12:43:01.739Z,2.55
2022-08-25T12:45:34.174Z,7.25
2022-08-25T12:48:20.507Z,2.80
2022-08-25T12:50:57.717Z,2.50
2022-08-25T12:53:33.785Z,2.78
2022-08-25T12:56:04.529Z,4.38
2022-08-25T12:58:58.324Z,3.17
2022-08-25T13:01:36.304Z,2.10
2022-08-25T13:04:19.391Z,1.98
2022-08-25T13:07:03.761Z,4.00
2022-08-25T13:09:47.175Z,2.38
2022-08-25T13:12:18.068Z,2.25
2022-08-25T13:14:52.359Z,3.33
2022-08-25T13:17:26.246Z,4.05
2022-08-25T13:19:53.911Z,2.65
2022-08-25T13:22:21.935Z,2.55
2022-08-25T13:24:51.178Z,3.25
2022-08-25T13:27:23.033Z,2.15
2022-08-25T13:29:51.674Z,2.88
2022-08-25T13:32:26.291Z,2.80
2022-08-25T13:35:09.230Z,3.63
2022-08-25T13:37:36.920Z,13.15
2022-08-25T13:40:12.669Z,15.63
2022-08-25T13:42:43.260Z,8.77
2022-08-25T13:45:15.078Z,9.75
2022-08-25T13:47:45.893Z,6.32
2022-08-25T13:50:22.563Z,9.10
2022-08-25T13:52:51.387Z,9.27
2022-08-25T13:55:27.854Z,13.45
2022-08-25T13:57:59.413Z,8.02
2022-08-25T14:00:31.629Z,11.88
2022-08-25T14:03:00.556Z,9.45
2022-08-25T14:05:39.358Z,6.30
2022-08-25T14:08:16.008Z,5.88
2022-08-25T14:10:50.933Z,7.70
2022-08-25T14:13:31.887Z,9.13
2022-08-25T14:16:08.310Z,8.23
2022-08-25T14:18:36.126Z,9.45
2022-08-25T14:21:09.795Z,9.75
2022-08-25T14:23:38.385Z,14.20
2022-08-25T14:26:06.912Z,9.90
2022-08-25T14:28:37.073Z,8.57
2022-08-25T14:31:08.311Z,7.43
2022-08-25T14:33:39.347Z,8.30
2022-08-25T14:36:08.008Z,8.05
2022-08-25T14:38:38.809Z,10.88
2022-08-25T14:43:40.968Z,11.70
2022-08-25T14:46:15.436Z,8.05
2022-08-25T14:48:44.812Z,9.25
2022-08-25T14:51:12.833Z,7.40
2022-08-25T14:53:40.914Z,7.38
2022-08-25T14:56:10.317Z,9.15
2022-08-25T14:58:48.494Z,7.40
2022-08-25T15:01:28.740Z,6.85
2022-08-25T15:03:59.108Z,12.63
2022-08-25T15:06:26.984Z,7.80
2022-08-25T15:09:08.552Z,8.00
2022-08-25T15:11:36.643Z,13.75
2022-08-25T15:14:10.761Z,7.80
2022-08-25T15:16:41.870Z,13.38
2022-08-25T15:19:10.482Z,12.63
2022-08-25T15:21:38.598Z,8.18
2022-08-25T15:24:07.107Z,11.18
2022-08-25T15:26:39.408Z,11.23
2022-08-25T15:29:07.673Z,7.72
2022-08-25T15:31:36.800Z,10.93
2022-08-25T15:34:06.437Z,7.55
2022-08-25T15:36:39.909Z,11.25
2022-08-25T15:39:09.745Z,9.70
2022-08-25T15:41:37.936Z,10.38
2022-08-25T15:44:07.777Z,12.98
2022-08-25T15:46:36.784Z,11.30
2022-08-25T15:49:07.930Z,11.50
2022-08-25T15:51:36.010Z,20.42
2022-08-25T15:54:04.339Z,12.95
2022-08-25T15:56:31.939Z,14.45
2022-08-25T15:58:59.591Z,14.15
2022-08-25T16:01:30.609Z,14.43
2022-08-25T16:03:58.375Z,16.20
2022-08-25T16:06:27.797Z,16.33
2022-08-25T16:08:55.618Z,8.32
2022-08-25T16:11:24.694Z,15.60
2022-08-25T16:13:53.134Z,13.35
2022-08-25T16:16:21.870Z,15.65
2022-08-25T16:18:49.581Z,10.77
2022-08-25T16:21:19.472Z,16.83
2022-08-25T16:23:49.371Z,20.92
2022-08-25T16:26:17.128Z,23.63
2022-08-25T16:28:45.712Z,16.67
2022-08-25T16:31:14.619Z,21.00
2022-08-25T16:33:42.791Z,20.27
2022-08-25T16:36:12.597Z,23.00
2022-08-25T16:38:40.805Z,21.38
2022-08-25T16:41:11.290Z,15.95
2022-08-25T16:43:39.766Z,16.40
2022-08-25T16:46:09.000Z,14.07
2022-08-25T16:48:38.013Z,13.25
2022-08-25T16:51:07.128Z,18.40
2022-08-25T16:53:53.340Z,16.50
2022-08-25T16:56:25.020Z,10.38
2022-08-25T16:58:55.692Z,12.73
2022-08-25T17:01:25.211Z,15.05
2022-08-25T17:03:53.433Z,7.22
2022-08-25T17:06:21.396Z,10.38
2022-08-25T17:08:50.833Z,5.18
2022-08-25T17:11:19.155Z,7.55
2022-08-25T17:13:49.709Z,12.95
2022-08-25T17:16:18.139Z,1.05
2022-08-25T17:18:47.900Z,2.17
2022-08-25T17:21:24.263Z,3.00
2022-08-25T17:23:52.966Z,2.97
2022-08-25T17:26:27.771Z,13.32
2022-08-25T17:28:59.234Z,11.90
2022-08-25T17:31:27.554Z,1.00
2022-08-25T17:33:55.908Z,1.30
2022-08-25T17:36:27.192Z,2.78
2022-08-25T17:38:55.257Z,2.33
2022-08-25T17:41:24.942Z,2.67
2022-08-25T17:43:52.627Z,3.72
2022-08-25T17:46:22.873Z,2.90
2022-08-25T17:48:50.561Z,2.25
2022-08-25T17:51:18.240Z,2.05
2022-08-25T17:53:46.797Z,3.15
2022-08-25T17:56:16.008Z,3.10
2022-08-25T17:58:44.498Z,2.90
2022-08-25T18:01:16.322Z,3.25
2022-08-25T18:03:46.154Z,3.08
2022-08-25T18:06:15.114Z,2.53
2022-08-25T18:08:44.269Z,3.67
2022-08-25T18:11:11.929Z,3.25
2022-08-25T18:13:41.470Z,3.20
2022-08-25T18:16:09.429Z,2.83
2022-08-25T18:18:37.183Z,2.53
2022-08-25T18:21:06.852Z,2.92
2022-08-25T18:23:34.544Z,2.95
2022-08-25T18:26:02.540Z,3.28
2022-08-25T18:28:30.470Z,2.95
2022-08-25T18:30:58.208Z,3.60
2022-08-25T18:33:25.907Z,1.27
2022-08-25T18:35:58.204Z,5.53
2022-08-25T18:38:44.795Z,4.68
2022-08-25T18:41:13.566Z,7.07
2022-08-25T18:43:41.935Z,12.20
2022-08-25T18:46:10.042Z,1.73
2022-08-25T18:48:38.232Z,2.30
2022-08-25T18:51:06.081Z,2.65
2022-08-25T18:53:37.465Z,2.22
2022-08-25T18:56:18.068Z,1.70
2022-08-25T18:58:46.270Z,1.70
2022-08-25T19:01:14.896Z,13.90
2022-08-25T19:03:43.125Z,7.88
2022-08-25T19:06:11.052Z,10.60
2022-08-25T19:08:41.830Z,13.95
2022-08-25T19:11:10.652Z,9.73
2022-08-25T19:13:38.507Z,13.93
2022-08-25T19:16:10.799Z,11.30
2022-08-25T19:18:38.992Z,10.13
2022-08-25T19:21:07.370Z,13.95
2022-08-25T19:23:38.004Z,10.25
2022-08-25T19:26:16.876Z,12.00
2022-08-25T19:28:45.685Z,7.45
2022-08-25T19:31:13.617Z,7.40
2022-08-25T19:33:43.974Z,6.47
2022-08-25T19:36:12.888Z,7.18
2022-08-25T19:38:40.555Z,12.73
2022-08-25T19:41:14.251Z,8.18
2022-08-25T19:43:55.620Z,11.45
2022-08-25T19:46:25.345Z,8.20
2022-08-25T19:48:53.032Z,3.28
2022-08-25T19:51:21.683Z,11.25
2022-08-25T19:53:54.314Z,8.30
2022-08-25T19:56:24.803Z,6.00
2022-08-25T19:58:52.456Z,7.28
2022-08-25T20:01:22.986Z,4.88
2022-08-25T20:03:52.048Z,6.20
2022-08-25T20:06:19.988Z,4.53
2022-08-25T20:08:47.704Z,8.95
2022-08-25T20:11:28.922Z,6.30
2022-08-25T20:14:00.424Z,5.95
2022-08-25T20:16:31.320Z,8.95
2022-08-25T20:19:00.188Z,7.10
2022-08-25T20:21:28.644Z,5.97
2022-08-25T20:24:16.462Z,6.38
2022-08-25T20:26:45.775Z,4.30
2022-08-25T20:29:14.084Z,6.25
2022-08-25T20:31:41.727Z,4.95
2022-08-25T20:34:11.422Z,5.38
2022-08-25T20:36:50.164Z,5.13
2022-08-25T20:39:18.124Z,6.82
2022-08-25T20:41:48.447Z,4.32
2022-08-25T20:44:16.543Z,4.93
2022-08-25T20:46:45.045Z,5.97
2022-08-25T20:49:13.612Z,5.55
2022-08-25T20:51:41.408Z,5.55
2022-08-25T20:54:12.565Z,5.35
2022-08-25T20:56:40.343Z,7.80
2022-08-25T20:59:10.502Z,6.82
2022-08-25T21:01:40.289Z,6.35
2022-08-25T21:04:08.803Z,6.20
2022-08-25T21:06:37.148Z,6.13
2022-08-25T21:09:05.981Z,4.82
2022-08-25T21:11:40.605Z,4.20
2022-08-25T21:14:10.161Z,5.88
2022-08-25T21:16:38.505Z,6.05
2022-08-25T21:19:08.949Z,7.55
2022-08-25T21:21:38.946Z,7.90
2022-08-25T21:24:09.765Z,10.07
2022-08-25T21:26:49.008Z,9.32
2022-08-25T21:29:18.714Z,5.22
2022-08-25T21:31:46.487Z,6.05
2022-08-25T21:34:17.118Z,7.70
2022-08-25T21:36:46.242Z,8.88
2022-08-25T21:39:14.342Z,7.57
2022-08-25T21:41:43.009Z,6.53
2022-08-25T21:44:10.983Z,6.20
2022-08-25T21:46:40.100Z,6.05
2022-08-25T21:49:08.605Z,10.00
2022-08-25T21:51:40.818Z,8.07
2022-08-25T21:54:10.022Z,4.90
2022-08-25T21:56:38.996Z,5.28
2022-08-25T21:59:07.241Z,5.03
2022-08-25T22:01:34.919Z,7.80
2022-08-25T22:04:05.656Z,6.53
2022-08-25T22:06:33.830Z,6.88
2022-08-25T22:09:01.745Z,3.40
2022-08-25T22:11:29.497Z,5.22
2022-08-25T22:14:05.461Z,4.78
2022-08-25T22:16:35.388Z,4.53
2022-08-25T22:19:03.202Z,4.95
2022-08-25T22:21:32.725Z,3.35
2022-08-25T22:24:00.597Z,5.90
2022-08-25T22:26:30.056Z,1.75
2022-08-25T22:28:58.462Z,4.95
2022-08-25T22:31:27.432Z,4.82
2022-08-25T22:33:57.653Z,5.05
2022-08-25T22:36:26.274Z,5.15
2022-08-25T22:38:56.328Z,4.80
2022-08-25T22:41:24.702Z,5.30
2022-08-25T22:43:53.072Z,6.03
2022-08-25T22:46:22.355Z,5.65
2022-08-25T22:48:51.526Z,6.60
2022-08-25T22:51:21.072Z,3.60
2022-08-25T22:53:49.933Z,3.65
2022-08-25T22:56:21.836Z,2.35
2022-08-25T22:58:51.437Z,2.88
2022-08-25T23:01:20.551Z,3.10
2022-08-25T23:03:48.257Z,3.22
2022-08-25T23:06:20.765Z,2.67
2022-08-25T23:08:53.532Z,2.55
2022-08-25T23:11:23.428Z,4.50
2022-08-25T23:13:51.597Z,4.47
2022-08-25T23:16:19.288Z,2.20
2022-08-25T23:18:46.996Z,3.10
2022-08-25T23:21:38.212Z,5.45
2022-08-25T23:24:10.769Z,5.45
2022-08-25T23:26:42.371Z,4.50
2022-08-25T23:29:18.073Z,2.72
2022-08-25T23:31:47.818Z,3.55
2022-08-25T23:34:15.957Z,4.25
2022-08-25T23:36:44.064Z,4.10
2022-08-25T23:39:12.381Z,3.60
2022-08-25T23:41:42.604Z,4.85
2022-08-25T23:44:11.606Z,2.90
2022-08-25T23:46:39.804Z,4.00
2022-08-25T23:49:09.325Z,2.13
2022-08-25T23:51:38.070Z,1.63
2022-08-25T23:54:07.139Z,2.90
2022-08-25T23:56:37.396Z,2.60
2022-08-25T23:59:14.417Z,4.03
